Wetterdaten: Woche 01.02.10 - 07.02.10 (KW5)
Datum Zeit Temperatur Luftfeuchte Luftdruck Niederschlag Wind Richtung Sonnenschein Solar Taupunkt Windchill Windben
01.02.2010 00:00 -3.5 C 87 % 1013.0 hPa 0.0 l/m 1.8 km/h (1 Bft) O-SO 0.00 h 0 W/m -5.3 C -3.5 C 3.4 km/h (1 Bft)
01.02.2010 01:00 -3.5 C 88 % 1012.9 hPa 0.0 l/m 2.9 km/h (1 Bft) S-SO 0.00 h 0 W/m -5.2 C -3.7 C 4.9 km/h (1 Bft)
01.02.2010 02:00 -3.4 C 88 % 1013.2 hPa 0.0 l/m 1.8 km/h (1 Bft) S-SO 0.00 h 0 W/m -5.1 C -3.5 C 3.7 km/h (1 Bft)
01.02.2010 03:00 -3.7 C 87 % 1013.1 hPa 0.0 l/m 1.7 km/h (1 Bft) S 0.00 h 0 W/m -5.5 C -3.8 C 3.7 km/h (1 Bft)
01.02.2010 04:00 -4.1 C 87 % 1013.3 hPa 0.0 l/m 2.6 km/h (1 Bft) S-SO 0.00 h 0 W/m -6.0 C -4.4 C 5.6 km/h (1 Bft)
01.02.2010 05:00 -4.4 C 85 % 1013.7 hPa 0.0 l/m 3.6 km/h (1 Bft) S 0.00 h 0 W/m -6.6 C -5.1 C 7.0 km/h (2 Bft)
01.02.2010 06:00 -5.0 C 84 % 1014.1 hPa 0.0 l/m 4.5 km/h (1 Bft) S-SO 0.00 h 0 W/m -7.3 C -6.4 C 8.1 km/h (2 Bft)
01.02.2010 07:00 -5.8 C 84 % 1014.6 hPa 0.0 l/m 5.0 km/h (1 Bft) S-SO 0.00 h 0 W/m -8.1 C -7.6 C 9.7 km/h (2 Bft)
01.02.2010 08:00 -5.8 C 83 % 1015.3 hPa 0.0 l/m 5.2 km/h (1 Bft) S-SO 0.00 h 20 W/m -8.3 C -7.8 C 8.7 km/h (2 Bft)
01.02.2010 09:00 -5.1 C 80 % 1015.6 hPa 0.0 l/m 5.3 km/h (1 Bft) S-SW 0.00 h 44 W/m -7.9 C -7.2 C 9.0 km/h (2 Bft)
01.02.2010 10:00 -3.7 C 75 % 1015.6 hPa 0.0 l/m 6.0 km/h (2 Bft) S-SW 0.00 h 69 W/m -7.5 C -6.0 C 10.3 km/h (2 Bft)
01.02.2010 11:00 -3.4 C 73 % 1015.6 hPa 0.0 l/m 8.5 km/h (2 Bft) S 0.00 h 90 W/m -7.6 C -6.8 C 15.4 km/h (3 Bft)
01.02.2010 12:00 -3.1 C 74 % 1015.4 hPa 0.0 l/m 9.0 km/h (2 Bft) S-SO 0.00 h 98 W/m -7.1 C -6.6 C 16.9 km/h (3 Bft)
01.02.2010 13:00 -2.7 C 73 % 1014.9 hPa 0.0 l/m 10.4 km/h (2 Bft) S-SO 0.12 h 162 W/m -7.0 C -6.6 C 18.4 km/h (3 Bft)
01.02.2010 14:00 -2.4 C 75 % 1014.9 hPa 0.2 l/m 6.1 km/h (2 Bft) SW 0.00 h 85 W/m -6.3 C -4.7 C 10.6 km/h (2 Bft)
01.02.2010 15:00 -2.7 C 85 % 1015.5 hPa 0.4 l/m 3.8 km/h (1 Bft) S-SW 0.00 h 24 W/m -4.9 C -3.3 C 6.8 km/h (2 Bft)
01.02.2010 16:00 -2.8 C 88 % 1016.2 hPa 0.6 l/m 2.4 km/h (1 Bft) S-SW 0.00 h 8 W/m -4.5 C -2.9 C 5.0 km/h (1 Bft)
01.02.2010 17:00 -2.7 C 90 % 1017.2 hPa 0.6 l/m 0.9 km/h (0 Bft) SW 0.00 h 0 W/m -4.2 C -2.7 C 2.5 km/h (1 Bft)
01.02.2010 18:00 -2.4 C 91 % 1018.0 hPa 0.4 l/m 4.4 km/h (1 Bft) W 0.00 h 0 W/m -3.7 C -3.6 C 7.3 km/h (2 Bft)
01.02.2010 19:00 -1.9 C 89 % 1018.5 hPa 0.2 l/m 5.6 km/h (1 Bft) W 0.00 h 0 W/m -3.5 C -3.7 C 9.4 km/h (2 Bft)
01.02.2010 20:00 -1.9 C 88 % 1019.1 hPa 0.0 l/m 3.1 km/h (1 Bft) W 0.00 h 0 W/m -3.6 C -2.5 C 5.8 km/h (2 Bft)
01.02.2010 21:00 -1.7 C 87 % 1019.5 hPa 0.2 l/m 2.8 km/h (1 Bft) SW 0.00 h 0 W/m -3.6 C -1.9 C 5.0 km/h (1 Bft)
01.02.2010 22:00 -1.8 C 88 % 1019.7 hPa 0.2 l/m 3.5 km/h (1 Bft) S-SO 0.00 h 0 W/m -3.5 C -2.5 C 6.2 km/h (2 Bft)
01.02.2010 23:00 -1.5 C 85 % 1019.9 hPa 0.0 l/m 6.9 km/h (2 Bft) W 0.00 h 0 W/m -3.7 C -3.9 C 11.4 km/h (2 Bft)
02.02.2010 00:00 -1.4 C 82 % 1020.4 hPa 0.0 l/m 3.3 km/h (1 Bft) W-SW 0.00 h 0 W/m -4.0 C -2.0 C 5.7 km/h (1 Bft)
02.02.2010 01:00 -1.8 C 85 % 1021.0 hPa 0.2 l/m 0.7 km/h (0 Bft) S-SO 0.00 h 0 W/m -3.9 C -1.8 C 2.4 km/h (1 Bft)
02.02.2010 02:00 -1.9 C 87 % 1021.3 hPa 0.0 l/m 0.5 km/h (0 Bft) S 0.00 h 0 W/m -3.8 C -1.9 C 1.2 km/h (1 Bft)
02.02.2010 03:00 -1.9 C 87 % 1021.7 hPa 0.0 l/m 1.3 km/h (1 Bft) S 0.00 h 0 W/m -3.8 C -1.9 C 2.9 km/h (1 Bft)
02.02.2010 04:00 -1.8 C 86 % 1021.8 hPa 0.2 l/m 1.8 km/h (1 Bft) SW 0.00 h 0 W/m -3.9 C -2.2 C 3.5 km/h (1 Bft)
02.02.2010 05:00 -2.1 C 84 % 1021.9 hPa 0.0 l/m 3.9 km/h (1 Bft) S-SO 0.00 h 0 W/m -4.4 C -3.0 C 6.2 km/h (2 Bft)
02.02.2010 06:00 -2.2 C 84 % 1021.8 hPa 0.0 l/m 2.3 km/h (1 Bft) S 0.00 h 0 W/m -4.6 C -2.7 C 4.3 km/h (1 Bft)
02.02.2010 07:00 -2.4 C 85 % 1021.8 hPa 0.0 l/m 2.8 km/h (1 Bft) O-SO 0.00 h 0 W/m -4.6 C -2.7 C 4.3 km/h (1 Bft)
02.02.2010 08:00 -1.8 C 84 % 1021.8 hPa 0.0 l/m 1.8 km/h (1 Bft) S 0.00 h 8 W/m -4.1 C -1.8 C 3.9 km/h (1 Bft)
02.02.2010 09:00 -0.8 C 81 % 1021.7 hPa 0.0 l/m 2.7 km/h (1 Bft) SW 0.00 h 45 W/m -3.6 C -1.4 C 4.8 km/h (1 Bft)
02.02.2010 10:00 0.6 C 75 % 1021.2 hPa 0.0 l/m 1.4 km/h (1 Bft) W-NW 0.00 h 96 W/m -3.2 C 0.6 C 3.2 km/h (1 Bft)
02.02.2010 11:00 1.7 C 71 % 1020.8 hPa 0.0 l/m 1.8 km/h (1 Bft) SW 0.67 h 206 W/m -2.9 C 1.2 C 3.9 km/h (1 Bft)
02.02.2010 12:00 2.1 C 67 % 1020.0 hPa 0.0 l/m 6.9 km/h (2 Bft) S-SW 0.77 h 245 W/m -3.4 C 0.3 C 11.2 km/h (2 Bft)
02.02.2010 13:00 2.5 C 66 % 1019.2 hPa 0.0 l/m 8.2 km/h (2 Bft) SW 0.78 h 249 W/m -3.1 C 0.3 C 13.2 km/h (3 Bft)
02.02.2010 14:00 2.6 C 68 % 1018.4 hPa 0.0 l/m 7.4 km/h (2 Bft) SW 0.30 h 169 W/m -2.7 C 0.6 C 11.8 km/h (2 Bft)
02.02.2010 15:00 2.1 C 67 % 1017.9 hPa 0.0 l/m 9.3 km/h (2 Bft) SW 0.00 h 93 W/m -3.3 C -0.6 C 15.1 km/h (3 Bft)
02.02.2010 16:00 2.0 C 65 % 1017.3 hPa 0.0 l/m 9.9 km/h (2 Bft) SW 0.00 h 39 W/m -3.9 C -0.8 C 16.3 km/h (3 Bft)
02.02.2010 17:00 2.0 C 64 % 1017.0 hPa 0.0 l/m 9.3 km/h (2 Bft) SW 0.02 h 11 W/m -4.0 C -0.6 C 14.9 km/h (3 Bft)
02.02.2010 18:00 2.0 C 67 % 1017.0 hPa 0.0 l/m 8.7 km/h (2 Bft) SW 0.00 h 0 W/m -3.6 C -0.6 C 14.1 km/h (3 Bft)
02.02.2010 19:00 2.2 C 64 % 1016.2 hPa 0.0 l/m 8.5 km/h (2 Bft) S-SW 0.00 h 0 W/m -3.9 C -0.3 C 16.2 km/h (3 Bft)
02.02.2010 20:00 2.3 C 64 % 1015.4 hPa 0.2 l/m 12.1 km/h (2 Bft) SW 0.00 h 0 W/m -3.8 C -0.9 C 20.1 km/h (4 Bft)
02.02.2010 21:00 2.7 C 66 % 1014.7 hPa 0.0 l/m 16.0 km/h (3 Bft) SW 0.00 h 0 W/m -3.0 C -1.3 C 25.3 km/h (4 Bft)
02.02.2010 22:00 2.4 C 72 % 1014.4 hPa 0.0 l/m 15.2 km/h (3 Bft) SW 0.00 h 0 W/m -2.2 C -1.4 C 23.9 km/h (4 Bft)
02.02.2010 23:00 1.9 C 80 % 1013.9 hPa 0.2 l/m 10.7 km/h (2 Bft) SW 0.00 h 0 W/m -1.1 C -1.1 C 17.3 km/h (3 Bft)
03.02.2010 00:00 2.1 C 82 % 1013.5 hPa 0.8 l/m 9.9 km/h (2 Bft) W-SW 0.00 h 0 W/m -0.7 C -0.6 C 15.6 km/h (3 Bft)
03.02.2010 01:00 1.4 C 88 % 1013.2 hPa 0.8 l/m 2.6 km/h (1 Bft) W-SW 0.00 h 0 W/m -0.4 C 1.1 C 5.3 km/h (1 Bft)
03.02.2010 02:00 1.5 C 90 % 1012.9 hPa 0.8 l/m 3.4 km/h (1 Bft) W-SW 0.00 h 0 W/m 0.1 C 1.0 C 5.8 km/h (2 Bft)
03.02.2010 03:00 2.2 C 89 % 1012.3 hPa 0.2 l/m 7.9 km/h (2 Bft) SW 0.00 h 0 W/m 0.5 C -0.0 C 12.2 km/h (2 Bft)
03.02.2010 04:00 2.6 C 86 % 1011.8 hPa 1.0 l/m 12.1 km/h (2 Bft) SW 0.00 h 0 W/m 0.5 C -0.6 C 19.0 km/h (3 Bft)
03.02.2010 05:00 2.2 C 88 % 1012.1 hPa 2.4 l/m 7.4 km/h (2 Bft) W-SW 0.00 h 0 W/m 0.5 C 0.2 C 11.8 km/h (2 Bft)
03.02.2010 06:00 1.8 C 91 % 1012.5 hPa 2.8 l/m 4.0 km/h (1 Bft) W-SW 0.00 h 0 W/m 0.5 C 1.2 C 6.4 km/h (2 Bft)
03.02.2010 07:00 1.5 C 93 % 1012.9 hPa 2.0 l/m 4.5 km/h (1 Bft) SW 0.00 h 0 W/m 0.4 C 0.5 C 7.5 km/h (2 Bft)
03.02.2010 08:00 1.6 C 94 % 1012.9 hPa 1.8 l/m 5.3 km/h (1 Bft) S-SW 0.00 h 16 W/m 0.8 C 0.3 C 8.6 km/h (2 Bft)
03.02.2010 09:00 1.9 C 94 % 1013.3 hPa 1.4 l/m 6.0 km/h (2 Bft) S 0.00 h 25 W/m 1.0 C 0.3 C 9.3 km/h (2 Bft)
03.02.2010 10:00 2.4 C 94 % 1013.8 hPa 0.0 l/m 4.9 km/h (1 Bft) S-SO 0.00 h 47 W/m 1.6 C 1.1 C 8.5 km/h (2 Bft)
03.02.2010 11:00 3.2 C 94 % 1014.3 hPa 0.0 l/m 1.9 km/h (1 Bft) W-SW 0.00 h 78 W/m 2.3 C 3.1 C 4.1 km/h (1 Bft)
03.02.2010 12:00 4.3 C 92 % 1014.6 hPa 0.2 l/m 6.3 km/h (2 Bft) W-SW 0.00 h 123 W/m 3.1 C 3.0 C 10.2 km/h (2 Bft)
03.02.2010 13:00 5.7 C 79 % 1014.7 hPa 0.0 l/m 14.7 km/h (3 Bft) W 0.00 h 142 W/m 2.3 C 2.7 C 21.3 km/h (4 Bft)
03.02.2010 14:00 6.7 C 73 % 1014.6 hPa 0.0 l/m 12.0 km/h (2 Bft) W 0.77 h 273 W/m 2.1 C 4.3 C 18.5 km/h (3 Bft)
03.02.2010 15:00 6.1 C 78 % 1015.3 hPa 0.0 l/m 8.0 km/h (2 Bft) W 0.32 h 132 W/m 2.5 C 4.5 C 13.2 km/h (3 Bft)
03.02.2010 16:00 5.8 C 78 % 1015.9 hPa 0.0 l/m 6.7 km/h (2 Bft) W 0.15 h 65 W/m 2.3 C 4.5 C 10.8 km/h (2 Bft)
03.02.2010 17:00 5.5 C 78 % 1016.5 hPa 0.0 l/m 3.9 km/h (1 Bft) W-NW 0.02 h 14 W/m 2.0 C 4.9 C 6.6 km/h (2 Bft)
03.02.2010 18:00 5.1 C 79 % 1017.0 hPa 0.0 l/m 4.3 km/h (1 Bft) NW 0.00 h 0 W/m 1.9 C 4.6 C 7.0 km/h (2 Bft)
03.02.2010 19:00 4.1 C 82 % 1017.6 hPa 0.0 l/m 2.2 km/h (1 Bft) O-SO 0.00 h 0 W/m 1.3 C 3.9 C 3.7 km/h (1 Bft)
03.02.2010 20:00 4.0 C 83 % 1017.6 hPa 0.0 l/m 1.6 km/h (1 Bft) SO 0.00 h 0 W/m 1.5 C 4.0 C 3.1 km/h (1 Bft)
03.02.2010 21:00 3.7 C 82 % 1017.6 hPa 0.0 l/m 3.1 km/h (1 Bft) SO 0.00 h 0 W/m 0.9 C 3.6 C 4.6 km/h (1 Bft)
03.02.2010 22:00 3.3 C 83 % 1017.8 hPa 0.0 l/m 1.7 km/h (1 Bft) SO 0.00 h 0 W/m 0.7 C 3.2 C 2.9 km/h (1 Bft)
03.02.2010 23:00 2.8 C 84 % 1017.5 hPa 0.0 l/m 2.3 km/h (1 Bft) O-SO 0.00 h 0 W/m 0.4 C 2.5 C 3.0 km/h (1 Bft)
04.02.2010 00:00 1.9 C 86 % 1017.5 hPa 0.0 l/m 1.8 km/h (1 Bft) O-SO 0.00 h 0 W/m -0.2 C 1.7 C 2.7 km/h (1 Bft)
04.02.2010 01:00 1.0 C 88 % 1017.3 hPa 0.0 l/m 0.6 km/h (0 Bft) O-SO 0.00 h 0 W/m -0.7 C 1.0 C 1.0 km/h (0 Bft)
04.02.2010 02:00 -0.2 C 89 % 1017.1 hPa 0.0 l/m 0.4 km/h (0 Bft) O-SO 0.00 h 0 W/m -1.7 C -0.2 C 0.9 km/h (0 Bft)
04.02.2010 03:00 -0.9 C 91 % 1017.2 hPa 0.0 l/m 0.5 km/h (0 Bft) O-SO 0.00 h 0 W/m -2.2 C -0.9 C 1.1 km/h (1 Bft)
04.02.2010 04:00 -2.1 C 91 % 1017.3 hPa 0.0 l/m 1.3 km/h (1 Bft) O-SO 0.00 h 0 W/m -3.3 C -2.2 C 1.8 km/h (1 Bft)
04.02.2010 05:00 -2.5 C 93 % 1017.3 hPa 0.0 l/m 0.6 km/h (0 Bft) O-SO 0.00 h 0 W/m -3.5 C -2.5 C 1.0 km/h (0 Bft)
04.02.2010 06:00 -2.2 C 94 % 1017.1 hPa 0.0 l/m 0.8 km/h (0 Bft) O-SO 0.00 h 0 W/m -3.0 C -2.2 C 1.6 km/h (1 Bft)
04.02.2010 07:00 -1.9 C 95 % 1016.8 hPa 0.0 l/m 0.3 km/h (0 Bft) O-SO 0.00 h 5 W/m -2.6 C -1.9 C 1.3 km/h (1 Bft)
04.02.2010 08:00 -1.8 C 95 % 1016.8 hPa 0.0 l/m 1.2 km/h (1 Bft) O-SO 0.00 h 31 W/m -2.4 C -1.8 C 2.5 km/h (1 Bft)
04.02.2010 09:00 -1.3 C 96 % 1016.8 hPa 0.0 l/m 0.8 km/h (0 Bft) O-SO 0.00 h 99 W/m -1.8 C -1.3 C 2.4 km/h (1 Bft)
04.02.2010 10:00 -0.6 C 97 % 1016.7 hPa 0.0 l/m 0.3 km/h (0 Bft) SO 0.00 h 142 W/m -1.1 C -0.6 C 1.1 km/h (1 Bft)
04.02.2010 11:00 -0.0 C 97 % 1016.5 hPa 0.0 l/m 0.2 km/h (0 Bft) SW 0.00 h 187 W/m -0.4 C -0.0 C 1.4 km/h (1 Bft)
04.02.2010 12:00 0.5 C 97 % 1016.2 hPa 0.0 l/m 0.9 km/h (0 Bft) SO 0.63 h 261 W/m 0.1 C 0.5 C 2.6 km/h (1 Bft)
04.02.2010 13:00 2.7 C 97 % 1015.3 hPa 0.0 l/m 1.8 km/h (1 Bft) SW 1.00 h 397 W/m 2.2 C 2.6 C 3.5 km/h (1 Bft)
04.02.2010 14:00 4.8 C 86 % 1014.1 hPa 0.0 l/m 1.8 km/h (1 Bft) W-NW 1.00 h 326 W/m 2.7 C 4.8 C 3.7 km/h (1 Bft)
04.02.2010 15:00 6.4 C 72 % 1013.8 hPa 0.0 l/m 1.7 km/h (1 Bft) W-NW 1.00 h 215 W/m 1.7 C 6.4 C 3.5 km/h (1 Bft)
04.02.2010 16:00 6.6 C 68 % 1013.4 hPa 0.0 l/m 0.3 km/h (0 Bft) W-NW 0.38 h 80 W/m 1.2 C 6.6 C 1.2 km/h (1 Bft)
04.02.2010 17:00 5.0 C 71 % 1013.5 hPa 0.0 l/m 0.3 km/h (0 Bft) W-NW 0.03 h 16 W/m 0.3 C 5.0 C 0.8 km/h (0 Bft)
04.02.2010 18:00 1.9 C 80 % 1013.8 hPa 0.0 l/m 0.7 km/h (0 Bft) W-NW 0.00 h 0 W/m -1.1 C 1.9 C 1.4 km/h (1 Bft)
04.02.2010 19:00 0.4 C 85 % 1013.8 hPa 0.0 l/m 2.0 km/h (1 Bft) S-SO 0.00 h 0 W/m -1.8 C 0.3 C 3.0 km/h (1 Bft)
04.02.2010 20:00 -0.6 C 87 % 1013.5 hPa 0.0 l/m 0.9 km/h (0 Bft) S-SO 0.00 h 0 W/m -2.5 C -0.6 C 1.7 km/h (1 Bft)
04.02.2010 21:00 -1.2 C 89 % 1013.2 hPa 0.0 l/m 1.0 km/h (0 Bft) S-SO 0.00 h 0 W/m -2.8 C -1.2 C 2.0 km/h (1 Bft)
04.02.2010 22:00 -1.4 C 91 % 1012.8 hPa 0.0 l/m 1.1 km/h (1 Bft) S-SO 0.00 h 0 W/m -2.7 C -1.4 C 2.2 km/h (1 Bft)
04.02.2010 23:00 -1.4 C 91 % 1012.2 hPa 0.0 l/m 1.2 km/h (1 Bft) O-SO 0.00 h 0 W/m -2.7 C -1.6 C 2.0 km/h (1 Bft)
05.02.2010 00:00 -1.2 C 92 % 1012.0 hPa 0.0 l/m 1.4 km/h (1 Bft) O-SO 0.00 h 0 W/m -2.4 C -1.3 C 2.4 km/h (1 Bft)
05.02.2010 01:00 -0.9 C 92 % 1011.5 hPa 0.0 l/m 2.0 km/h (1 Bft) O-SO 0.00 h 0 W/m -2.0 C -1.0 C 3.4 km/h (1 Bft)
05.02.2010 02:00 -0.9 C 93 % 1010.9 hPa 0.0 l/m 2.2 km/h (1 Bft) O-SO 0.00 h 0 W/m -1.9 C -1.2 C 3.5 km/h (1 Bft)
05.02.2010 03:00 -0.7 C 93 % 1010.5 hPa 0.0 l/m 2.9 km/h (1 Bft) O-SO 0.00 h 0 W/m -1.7 C -1.0 C 4.4 km/h (1 Bft)
05.02.2010 04:00 -0.5 C 92 % 1010.1 hPa 0.0 l/m 2.7 km/h (1 Bft) O-SO 0.00 h 0 W/m -1.5 C -0.9 C 4.2 km/h (1 Bft)
05.02.2010 05:00 -0.4 C 92 % 1010.0 hPa 0.0 l/m 0.0 km/h (0 Bft) N 0.00 h 0 W/m -1.5 C -0.4 C 0.2 km/h (0 Bft)
05.02.2010 06:00 -0.6 C 92 % 1009.8 hPa 0.0 l/m 0.0 km/h (0 Bft) O-SO 0.00 h 0 W/m -1.7 C -0.6 C 0.1 km/h (0 Bft)
05.02.2010 07:00 -0.4 C 92 % 1009.7 hPa 0.0 l/m 0.6 km/h (0 Bft) W 0.00 h 0 W/m -1.5 C -0.4 C 1.5 km/h (1 Bft)
05.02.2010 08:00 -0.1 C 93 % 1009.8 hPa 0.8 l/m 0.1 km/h (0 Bft) W 0.00 h 17 W/m -1.1 C -0.1 C 0.9 km/h (0 Bft)
05.02.2010 09:00 0.2 C 94 % 1009.6 hPa 1.4 l/m 0.0 km/h (0 Bft) N 0.00 h 32 W/m -0.6 C 0.2 C 0.1 km/h (0 Bft)
05.02.2010 10:00 0.5 C 95 % 1009.7 hPa 1.6 l/m 0.3 km/h (0 Bft) W 0.00 h 54 W/m -0.2 C 0.5 C 0.5 km/h (0 Bft)
05.02.2010 11:00 1.0 C 95 % 1009.6 hPa 0.8 l/m 0.8 km/h (0 Bft) O-SO 0.00 h 90 W/m 0.4 C 1.0 C 1.9 km/h (1 Bft)
05.02.2010 12:00 1.6 C 96 % 1009.3 hPa 0.8 l/m 0.1 km/h (0 Bft) O-SO 0.00 h 70 W/m 1.0 C 1.6 C 0.5 km/h (0 Bft)
05.02.2010 13:00 1.9 C 96 % 1009.2 hPa 0.8 l/m 0.1 km/h (0 Bft) O-SO 0.00 h 75 W/m 1.3 C 1.9 C 0.4 km/h (0 Bft)
05.02.2010 14:00 2.3 C 96 % 1008.8 hPa 0.8 l/m 1.5 km/h (1 Bft) SO 0.00 h 68 W/m 1.7 C 2.3 C 3.2 km/h (1 Bft)
05.02.2010 15:00 2.8 C 96 % 1008.7 hPa 0.4 l/m 1.8 km/h (1 Bft) S 0.00 h 44 W/m 2.2 C 2.7 C 4.5 km/h (1 Bft)
05.02.2010 16:00 2.4 C 96 % 1009.2 hPa 0.8 l/m 5.3 km/h (1 Bft) S-SW 0.00 h 20 W/m 1.8 C 1.1 C 9.7 km/h (2 Bft)
05.02.2010 17:00 1.7 C 96 % 1010.0 hPa 1.0 l/m 6.3 km/h (2 Bft) S 0.00 h 7 W/m 1.2 C 0.1 C 11.8 km/h (2 Bft)
05.02.2010 18:00 1.6 C 96 % 1010.7 hPa 0.6 l/m 7.2 km/h (2 Bft) S-SW 0.00 h 0 W/m 1.0 C -0.6 C 12.3 km/h (3 Bft)
05.02.2010 19:00 1.6 C 96 % 1011.1 hPa 0.4 l/m 5.5 km/h (1 Bft) S-SW 0.00 h 0 W/m 1.0 C 0.2 C 10.3 km/h (2 Bft)
05.02.2010 20:00 1.9 C 96 % 1011.6 hPa 0.0 l/m 6.8 km/h (2 Bft) S-SW 0.00 h 0 W/m 1.3 C -0.1 C 12.5 km/h (3 Bft)
05.02.2010 21:00 2.2 C 96 % 1012.0 hPa 0.2 l/m 6.3 km/h (2 Bft) S 0.00 h 0 W/m 1.6 C 0.5 C 11.8 km/h (2 Bft)
05.02.2010 22:00 2.3 C 96 % 1012.5 hPa 0.2 l/m 3.9 km/h (1 Bft) S-SW 0.00 h 0 W/m 1.7 C 1.6 C 7.1 km/h (2 Bft)
05.02.2010 23:00 2.5 C 96 % 1012.7 hPa 0.0 l/m 2.2 km/h (1 Bft) S-SW 0.00 h 0 W/m 1.9 C 2.3 C 5.5 km/h (1 Bft)
06.02.2010 00:00 2.5 C 96 % 1012.9 hPa 0.0 l/m 3.7 km/h (1 Bft) S 0.00 h 0 W/m 1.9 C 2.1 C 7.1 km/h (2 Bft)
06.02.2010 01:00 2.6 C 96 % 1013.3 hPa 0.0 l/m 3.7 km/h (1 Bft) S-SO 0.00 h 0 W/m 2.0 C 2.0 C 7.1 km/h (2 Bft)
06.02.2010 02:00 2.6 C 96 % 1013.1 hPa 0.0 l/m 4.3 km/h (1 Bft) S-SO 0.00 h 0 W/m 2.0 C 1.9 C 7.6 km/h (2 Bft)
06.02.2010 03:00 2.5 C 95 % 1013.2 hPa 0.0 l/m 3.5 km/h (1 Bft) SO 0.00 h 0 W/m 1.8 C 1.9 C 5.7 km/h (1 Bft)
06.02.2010 04:00 2.4 C 95 % 1013.0 hPa 0.0 l/m 3.9 km/h (1 Bft) SO 0.00 h 0 W/m 1.7 C 1.7 C 6.3 km/h (2 Bft)
06.02.2010 05:00 2.0 C 94 % 1012.5 hPa 0.0 l/m 2.3 km/h (1 Bft) SO 0.00 h 0 W/m 1.2 C 2.0 C 4.2 km/h (1 Bft)
06.02.2010 06:00 1.8 C 95 % 1011.9 hPa 0.0 l/m 2.3 km/h (1 Bft) S-SO 0.00 h 0 W/m 1.0 C 1.6 C 4.4 km/h (1 Bft)
06.02.2010 07:00 1.7 C 95 % 1011.8 hPa 0.0 l/m 3.0 km/h (1 Bft) O-SO 0.00 h 0 W/m 1.0 C 1.3 C 5.0 km/h (1 Bft)
06.02.2010 08:00 1.7 C 95 % 1011.5 hPa 0.0 l/m 0.6 km/h (0 Bft) S-SO 0.00 h 22 W/m 1.0 C 1.7 C 1.4 km/h (1 Bft)
06.02.2010 09:00 2.0 C 95 % 1011.1 hPa 0.0 l/m 0.3 km/h (0 Bft) O-NO 0.00 h 67 W/m 1.3 C 2.0 C 1.3 km/h (1 Bft)
06.02.2010 10:00 2.4 C 95 % 1011.3 hPa 0.0 l/m 0.6 km/h (0 Bft) O 0.00 h 74 W/m 1.7 C 2.4 C 1.7 km/h (1 Bft)
06.02.2010 11:00 2.7 C 95 % 1011.7 hPa 0.0 l/m 0.1 km/h (0 Bft) NO 0.00 h 89 W/m 2.0 C 2.7 C 0.9 km/h (0 Bft)
06.02.2010 12:00 3.0 C 94 % 1011.7 hPa 0.0 l/m 0.4 km/h (0 Bft) O-SO 0.00 h 119 W/m 2.1 C 3.0 C 1.3 km/h (1 Bft)
06.02.2010 13:00 3.4 C 92 % 1011.6 hPa 0.0 l/m 0.4 km/h (0 Bft) O-SO 0.00 h 109 W/m 2.3 C 3.4 C 1.4 km/h (1 Bft)
06.02.2010 14:00 3.4 C 90 % 1011.6 hPa 0.0 l/m 2.1 km/h (1 Bft) SO 0.00 h 82 W/m 2.0 C 3.2 C 3.8 km/h (1 Bft)
06.02.2010 15:00 3.5 C 89 % 1012.1 hPa 0.0 l/m 1.3 km/h (1 Bft) N-NO 0.00 h 58 W/m 1.9 C 3.4 C 3.1 km/h (1 Bft)
06.02.2010 16:00 3.2 C 89 % 1012.5 hPa 0.0 l/m 1.5 km/h (1 Bft) O-SO 0.00 h 27 W/m 1.5 C 3.1 C 2.8 km/h (1 Bft)
06.02.2010 17:00 3.2 C 89 % 1013.0 hPa 0.0 l/m 0.0 km/h (0 Bft) N-NO 0.00 h 11 W/m 1.5 C 3.2 C 0.3 km/h (0 Bft)
06.02.2010 18:00 3.0 C 89 % 1013.5 hPa 0.0 l/m 0.5 km/h (0 Bft) N-NO 0.00 h 0 W/m 1.4 C 3.0 C 1.2 km/h (1 Bft)
06.02.2010 19:00 2.9 C 89 % 1014.1 hPa 0.0 l/m 0.4 km/h (0 Bft) N 0.00 h 0 W/m 1.3 C 2.9 C 1.2 km/h (1 Bft)
06.02.2010 20:00 2.6 C 91 % 1014.6 hPa 0.0 l/m 2.5 km/h (1 Bft) W-NW 0.00 h 0 W/m 1.2 C 2.4 C 5.1 km/h (1 Bft)
06.02.2010 21:00 2.4 C 92 % 1015.0 hPa 0.0 l/m 0.2 km/h (0 Bft) N-NW 0.00 h 0 W/m 1.2 C 2.4 C 0.8 km/h (0 Bft)
06.02.2010 22:00 2.1 C 92 % 1015.6 hPa 0.0 l/m 0.9 km/h (0 Bft) N-NW 0.00 h 0 W/m 1.0 C 2.1 C 2.1 km/h (1 Bft)
06.02.2010 23:00 1.9 C 92 % 1016.1 hPa 0.0 l/m 0.7 km/h (0 Bft) N-NW 0.00 h 0 W/m 0.8 C 1.9 C 1.9 km/h (1 Bft)
07.02.2010 00:00 1.8 C 93 % 1016.5 hPa 0.0 l/m 0.4 km/h (0 Bft) N-NW 0.00 h 0 W/m 0.8 C 1.8 C 1.3 km/h (1 Bft)
07.02.2010 01:00 1.4 C 93 % 1016.6 hPa 0.0 l/m 0.4 km/h (0 Bft) O 0.00 h 0 W/m 0.4 C 1.4 C 0.7 km/h (0 Bft)
07.02.2010 02:00 0.9 C 94 % 1016.8 hPa 0.0 l/m 0.7 km/h (0 Bft) O 0.00 h 0 W/m 0.1 C 0.9 C 1.2 km/h (1 Bft)
07.02.2010 03:00 0.9 C 95 % 1016.9 hPa 0.0 l/m 0.5 km/h (0 Bft) N 0.00 h 0 W/m 0.1 C 0.9 C 1.4 km/h (1 Bft)
07.02.2010 04:00 1.1 C 95 % 1017.0 hPa 0.0 l/m 0.7 km/h (0 Bft) N 0.00 h 0 W/m 0.4 C 1.1 C 1.8 km/h (1 Bft)
07.02.2010 05:00 1.3 C 95 % 1017.2 hPa 0.0 l/m 0.2 km/h (0 Bft) N-NW 0.00 h 0 W/m 0.6 C 1.3 C 0.7 km/h (0 Bft)
07.02.2010 06:00 1.2 C 96 % 1017.3 hPa 0.0 l/m 0.3 km/h (0 Bft) N 0.00 h 0 W/m 0.6 C 1.2 C 0.6 km/h (0 Bft)
07.02.2010 07:00 1.4 C 96 % 1017.6 hPa 0.4 l/m 1.4 km/h (1 Bft) N-NW 0.00 h 0 W/m 0.8 C 1.4 C 3.1 km/h (1 Bft)
07.02.2010 08:00 1.4 C 96 % 1017.7 hPa 0.2 l/m 0.3 km/h (0 Bft) N-NW 0.00 h 10 W/m 0.9 C 1.4 C 1.1 km/h (1 Bft)
07.02.2010 09:00 1.7 C 97 % 1018.1 hPa 0.0 l/m 0.1 km/h (0 Bft) N-NW 0.00 h 30 W/m 1.2 C 1.7 C 0.6 km/h (0 Bft)
07.02.2010 10:00 1.9 C 97 % 1018.3 hPa 0.0 l/m 0.3 km/h (0 Bft) N-NW 0.00 h 50 W/m 1.4 C 1.9 C 1.0 km/h (0 Bft)
07.02.2010 11:00 2.4 C 97 % 1018.3 hPa 0.0 l/m 1.3 km/h (1 Bft) N-NW 0.00 h 123 W/m 2.0 C 2.4 C 3.0 km/h (1 Bft)
07.02.2010 12:00 3.0 C 97 % 1018.1 hPa 0.0 l/m 0.7 km/h (0 Bft) N-NW 0.00 h 88 W/m 2.6 C 3.0 C 2.1 km/h (1 Bft)
07.02.2010 13:00 3.3 C 97 % 1017.8 hPa 0.0 l/m 0.6 km/h (0 Bft) N-NW 0.00 h 70 W/m 2.8 C 3.3 C 1.7 km/h (1 Bft)
07.02.2010 14:00 3.1 C 96 % 1017.7 hPa 0.0 l/m 1.1 km/h (0 Bft) O-SO 0.00 h 35 W/m 2.6 C 3.1 C 2.6 km/h (1 Bft)
07.02.2010 15:00 3.1 C 96 % 1017.2 hPa 0.0 l/m 0.0 km/h (0 Bft) N 0.00 h 19 W/m 2.5 C 3.1 C 0.1 km/h (0 Bft)
07.02.2010 16:00 3.2 C 95 % 1017.0 hPa 0.0 l/m 0.0 km/h (0 Bft) N 0.00 h 16 W/m 2.5 C 3.2 C 0.0 km/h (0 Bft)
07.02.2010 17:00 3.1 C 94 % 1016.7 hPa 0.0 l/m 0.0 km/h (0 Bft) N 0.00 h 6 W/m 2.2 C 3.1 C 0.1 km/h (0 Bft)
07.02.2010 18:00 2.7 C 92 % 1016.7 hPa 0.0 l/m 0.5 km/h (0 Bft) N-NO 0.00 h 0 W/m 1.6 C 2.7 C 1.8 km/h (1 Bft)
07.02.2010 19:00 2.5 C 90 % 1016.6 hPa 0.0 l/m 1.0 km/h (0 Bft) NO 0.00 h 0 W/m 1.1 C 2.5 C 2.9 km/h (1 Bft)
07.02.2010 20:00 2.2 C 87 % 1016.4 hPa 0.0 l/m 0.6 km/h (0 Bft) NO 0.00 h 0 W/m 0.3 C 2.1 C 2.0 km/h (1 Bft)
07.02.2010 21:00 1.9 C 80 % 1016.1 hPa 0.0 l/m 1.8 km/h (1 Bft) O 0.00 h 0 W/m -1.2 C 1.8 C 4.4 km/h (1 Bft)
07.02.2010 22:00 1.6 C 78 % 1015.6 hPa 0.0 l/m 0.8 km/h (0 Bft) O 0.00 h 0 W/m -1.8 C 1.6 C 2.5 km/h (1 Bft)
07.02.2010 23:00 1.3 C 80 % 1014.9 hPa 0.0 l/m 2.5 km/h (1 Bft) O 0.00 h 0 W/m -1.8 C 1.1 C 6.1 km/h (2 Bft)
Min-Datum _ 01.02.10 02.02.10 05.02.10 - 01.02.10 - - - 01.02.10 01.02.10 01.02.10
_ Min-Zeit 08:00 16:33 15:00 - 00:01 - - - 07:52 08:00 00:10
Minimum _ -6.0 C 63 % 1008.6 hPa - 0.0 km/h (0 Bft) - - - -8.3 C -11.0 C 0.0 km/h (0 Bft)
Max-Datum _ 03.02.10 05.02.10 02.02.10 03.02.10 02.02.10 - 01.02.10 03.02.10 03.02.10 03.02.10 02.02.10
_ Max-Zeit 14:40 21:33 04:30 06:02 21:23 - 13:22 14:29 12:48 14:59 21:47
Maximum _ 7.0 C 99 % 1022.0 hPa 2.8 l/m 24.3 km/h
SW (4 Bft)
- 0.02 h 497 W/m 3.4 C 6.8 C 38.2 km/h
SW (5 Bft)
Durchschnitt _ 0.9 C 88 % 1015.0 hPa #29.0 l/m 3.1 km/h (1 Bft) SW #7:57 h 36 W/m -0.9 C 0.3 C 5.6 km/h (1 Bft)
© Kaiko 2010